sensor_id;sensor_type;location;lat;lon;timestamp;temperature;humidity
15977;DHT22;8091;51.914;12.786;2022-10-22T13:37:16;21.10;99.90
15977;DHT22;8091;51.914;12.786;2022-10-22T13:39:41;21.00;1.00
15977;DHT22;8091;51.914;12.786;2022-10-22T13:42:10;20.90;1.00
15977;DHT22;8091;51.914;12.786;2022-10-22T13:44:36;20.70;99.90
15977;DHT22;8091;51.914;12.786;2022-10-22T13:47:01;20.60;99.90
15977;DHT22;8091;51.914;12.786;2022-10-22T13:49:27;20.50;1.00
15977;DHT22;8091;51.914;12.786;2022-10-22T13:51:52;20.50;99.90
15977;DHT22;8091;51.914;12.786;2022-10-22T13:54:18;20.40;99.90
15977;DHT22;8091;51.914;12.786;2022-10-22T13:56:45;20.40;1.00
15977;DHT22;8091;51.914;12.786;2022-10-22T13:59:11;20.30;92.30
15977;DHT22;8091;51.914;12.786;2022-10-22T14:01:37;20.30;1.00
15977;DHT22;8091;51.914;12.786;2022-10-22T14:04:03;20.20;1.00
15977;DHT22;8091;51.914;12.786;2022-10-22T14:06:29;20.20;71.90
15977;DHT22;8091;51.914;12.786;2022-10-22T14:09:03;20.10;99.90
15977;DHT22;8091;51.914;12.786;2022-10-22T14:11:29;20.00;99.90
15977;DHT22;8091;51.914;12.786;2022-10-22T14:13:59;20.10;1.00
15977;DHT22;8091;51.914;12.786;2022-10-22T14:16:27;20.00;99.90
15977;DHT22;8091;51.914;12.786;2022-10-22T14:18:55;19.90;1.00
15977;DHT22;8091;51.914;12.786;2022-10-22T14:21:21;19.90;1.00
15977;DHT22;8091;51.914;12.786;2022-10-22T14:23:47;19.80;1.00
15977;DHT22;8091;51.914;12.786;2022-10-22T14:26:20;19.70;1.00
15977;DHT22;8091;51.914;12.786;2022-10-22T14:28:47;19.70;1.00
15977;DHT22;8091;51.914;12.786;2022-10-22T14:31:13;19.70;1.00
15977;DHT22;8091;51.914;12.786;2022-10-22T14:33:38;19.70;99.90
15977;DHT22;8091;51.914;12.786;2022-10-22T14:36:04;19.80;19.90
15977;DHT22;8091;51.914;12.786;2022-10-22T14:38:29;19.80;1.00
15977;DHT22;8091;51.914;12.786;2022-10-22T14:40:55;19.70;26.80
15977;DHT22;8091;51.914;12.786;2022-10-22T14:43:24;19.70;99.90
15977;DHT22;8091;51.914;12.786;2022-10-22T14:45:50;19.60;1.00
15977;DHT22;8091;51.914;12.786;2022-10-22T14:48:16;19.60;1.00
15977;DHT22;8091;51.914;12.786;2022-10-22T14:50:42;19.50;1.00
15977;DHT22;8091;51.914;12.786;2022-10-22T14:53:08;19.50;99.90
15977;DHT22;8091;51.914;12.786;2022-10-22T14:55:34;19.40;99.90
15977;DHT22;8091;51.914;12.786;2022-10-22T14:57:59;19.40;1.00
15977;DHT22;8091;51.914;12.786;2022-10-22T15:00:25;19.40;1.00
15977;DHT22;8091;51.914;12.786;2022-10-22T15:02:51;19.30;14.00
15977;DHT22;8091;51.914;12.786;2022-10-22T15:05:16;19.30;99.90
15977;DHT22;8091;51.914;12.786;2022-10-22T15:07:42;19.20;99.90
15977;DHT22;8091;51.914;12.786;2022-10-22T15:10:08;19.20;99.90
15977;DHT22;8091;51.914;12.786;2022-10-22T15:12:33;19.10;99.90
15977;DHT22;8091;51.914;12.786;2022-10-22T15:14:59;19.00;1.00
15977;DHT22;8091;51.914;12.786;2022-10-22T15:17:25;19.00;1.00
15977;DHT22;8091;51.914;12.786;2022-10-22T15:19:50;19.00;1.00
15977;DHT22;8091;51.914;12.786;2022-10-22T15:22:17;18.90;1.00
15977;DHT22;8091;51.914;12.786;2022-10-22T15:24:43;18.80;1.00
15977;DHT22;8091;51.914;12.786;2022-10-22T15:27:12;18.80;1.00
15977;DHT22;8091;51.914;12.786;2022-10-22T15:29:38;18.70;1.00
15977;DHT22;8091;51.914;12.786;2022-10-22T15:32:04;18.70;1.00
15977;DHT22;8091;51.914;12.786;2022-10-22T15:34:31;18.50;1.00
15977;DHT22;8091;51.914;12.786;2022-10-22T15:36:57;18.50;1.00
15977;DHT22;8091;51.914;12.786;2022-10-22T15:39:23;18.40;1.00
15977;DHT22;8091;51.914;12.786;2022-10-22T15:41:49;18.40;1.00
15977;DHT22;8091;51.914;12.786;2022-10-22T15:44:16;18.20;1.00
15977;DHT22;8091;51.914;12.786;2022-10-22T15:46:42;18.20;1.00
15977;DHT22;8091;51.914;12.786;2022-10-22T15:49:07;18.20;1.00
15977;DHT22;8091;51.914;12.786;2022-10-22T15:51:33;18.10;1.00
15977;DHT22;8091;51.914;12.786;2022-10-22T15:53:58;18.10;1.00
15977;DHT22;8091;51.914;12.786;2022-10-22T15:56:25;18.00;1.00
15977;DHT22;8091;51.914;12.786;2022-10-22T15:58:52;17.90;1.00
15977;DHT22;8091;51.914;12.786;2022-10-22T16:01:18;17.80;1.00
15977;DHT22;8091;51.914;12.786;2022-10-22T16:03:43;17.80;1.00
15977;DHT22;8091;51.914;12.786;2022-10-22T16:06:09;17.80;1.00
15977;DHT22;8091;51.914;12.786;2022-10-22T16:08:34;17.70;1.00
15977;DHT22;8091;51.914;12.786;2022-10-22T16:11:00;17.70;1.00
15977;DHT22;8091;51.914;12.786;2022-10-22T16:13:26;17.70;1.00
15977;DHT22;8091;51.914;12.786;2022-10-22T16:15:51;17.70;1.00
15977;DHT22;8091;51.914;12.786;2022-10-22T16:18:17;17.50;1.00
15977;DHT22;8091;51.914;12.786;2022-10-22T16:20:43;17.50;15.80
15977;DHT22;8091;51.914;12.786;2022-10-22T16:23:09;17.40;53.50
15977;DHT22;8091;51.914;12.786;2022-10-22T16:25:38;17.30;51.30
15977;DHT22;8091;51.914;12.786;2022-10-22T16:28:04;17.20;79.00
15977;DHT22;8091;51.914;12.786;2022-10-22T16:30:33;17.10;78.50
15977;DHT22;8091;51.914;12.786;2022-10-22T16:32:59;17.00;85.40
15977;DHT22;8091;51.914;12.786;2022-10-22T16:35:25;17.00;92.40
15977;DHT22;8091;51.914;12.786;2022-10-22T16:37:50;16.90;92.50
15977;DHT22;8091;51.914;12.786;2022-10-22T16:40:16;16.90;97.90
15977;DHT22;8091;51.914;12.786;2022-10-22T16:42:42;16.90;99.30
15977;DHT22;8091;51.914;12.786;2022-10-22T16:45:08;16.80;99.90
15977;DHT22;8091;51.914;12.786;2022-10-22T16:47:34;16.70;99.90
15977;DHT22;8091;51.914;12.786;2022-10-22T16:49:59;16.60;99.90
15977;DHT22;8091;51.914;12.786;2022-10-22T16:52:25;16.70;99.90
15977;DHT22;8091;51.914;12.786;2022-10-22T16:54:51;16.70;99.90
15977;DHT22;8091;51.914;12.786;2022-10-22T16:57:16;16.60;99.90
15977;DHT22;8091;51.914;12.786;2022-10-22T16:59:42;16.50;99.90
15977;DHT22;8091;51.914;12.786;2022-10-22T17:02:08;16.50;99.90
15977;DHT22;8091;51.914;12.786;2022-10-22T17:04:34;16.40;99.90
15977;DHT22;8091;51.914;12.786;2022-10-22T17:06:59;16.40;99.90
15977;DHT22;8091;51.914;12.786;2022-10-22T17:09:25;16.40;99.90
15977;DHT22;8091;51.914;12.786;2022-10-22T17:11:50;16.30;99.90
15977;DHT22;8091;51.914;12.786;2022-10-22T17:14:16;16.30;99.90
15977;DHT22;8091;51.914;12.786;2022-10-22T17:16:41;16.30;99.90
15977;DHT22;8091;51.914;12.786;2022-10-22T17:19:09;16.20;99.90
15977;DHT22;8091;51.914;12.786;2022-10-22T17:21:34;16.20;99.90
15977;DHT22;8091;51.914;12.786;2022-10-22T17:24:00;16.20;99.90
15977;DHT22;8091;51.914;12.786;2022-10-22T17:26:26;16.10;99.90
15977;DHT22;8091;51.914;12.786;2022-10-22T17:28:51;16.10;99.90
15977;DHT22;8091;51.914;12.786;2022-10-22T17:31:19;16.00;99.90
15977;DHT22;8091;51.914;12.786;2022-10-22T17:33:45;15.90;99.90
15977;DHT22;8091;51.914;12.786;2022-10-22T17:36:11;15.80;99.90
15977;DHT22;8091;51.914;12.786;2022-10-22T17:38:41;15.60;99.90
15977;DHT22;8091;51.914;12.786;2022-10-22T17:41:07;15.50;99.90
15977;DHT22;8091;51.914;12.786;2022-10-22T17:43:34;15.50;99.90
15977;DHT22;8091;51.914;12.786;2022-10-22T17:46:05;15.50;99.90
15977;DHT22;8091;51.914;12.786;2022-10-22T17:48:31;15.50;99.90
15977;DHT22;8091;51.914;12.786;2022-10-22T17:50:57;15.60;99.90
15977;DHT22;8091;51.914;12.786;2022-10-22T17:53:23;15.60;99.90
15977;DHT22;8091;51.914;12.786;2022-10-22T17:55:48;15.60;99.90
15977;DHT22;8091;51.914;12.786;2022-10-22T17:58:14;15.60;99.90
15977;DHT22;8091;51.914;12.786;2022-10-22T18:00:39;15.50;99.90
15977;DHT22;8091;51.914;12.786;2022-10-22T18:03:05;15.40;99.90
15977;DHT22;8091;51.914;12.786;2022-10-22T18:05:30;15.40;99.90
15977;DHT22;8091;51.914;12.786;2022-10-22T18:07:57;15.30;99.90
15977;DHT22;8091;51.914;12.786;2022-10-22T18:10:22;15.20;99.90
15977;DHT22;8091;51.914;12.786;2022-10-22T18:12:48;15.00;99.90
15977;DHT22;8091;51.914;12.786;2022-10-22T18:15:13;14.90;99.90
15977;DHT22;8091;51.914;12.786;2022-10-22T18:17:39;14.80;99.90
15977;DHT22;8091;51.914;12.786;2022-10-22T18:20:05;14.80;99.90
15977;DHT22;8091;51.914;12.786;2022-10-22T18:22:31;14.80;99.90
15977;DHT22;8091;51.914;12.786;2022-10-22T18:24:57;14.80;99.90
15977;DHT22;8091;51.914;12.786;2022-10-22T18:27:23;14.90;99.90
15977;DHT22;8091;51.914;12.786;2022-10-22T18:29:49;15.10;99.90
15977;DHT22;8091;51.914;12.786;2022-10-22T18:32:14;15.10;99.90
15977;DHT22;8091;51.914;12.786;2022-10-22T18:34:40;15.10;99.90
15977;DHT22;8091;51.914;12.786;2022-10-22T18:37:05;15.10;99.90
15977;DHT22;8091;51.914;12.786;2022-10-22T18:39:31;15.10;99.90
15977;DHT22;8091;51.914;12.786;2022-10-22T18:41:56;15.10;99.90
15977;DHT22;8091;51.914;12.786;2022-10-22T18:44:22;15.10;99.90
15977;DHT22;8091;51.914;12.786;2022-10-22T18:46:49;15.10;99.90
15977;DHT22;8091;51.914;12.786;2022-10-22T18:49:16;15.10;99.90
15977;DHT22;8091;51.914;12.786;2022-10-22T18:51:42;15.30;99.90
15977;DHT22;8091;51.914;12.786;2022-10-22T18:54:08;15.30;99.90
15977;DHT22;8091;51.914;12.786;2022-10-22T18:56:34;15.40;99.90
15977;DHT22;8091;51.914;12.786;2022-10-22T18:59:00;15.40;99.90
15977;DHT22;8091;51.914;12.786;2022-10-22T19:01:26;15.40;99.90
15977;DHT22;8091;51.914;12.786;2022-10-22T19:03:54;15.60;99.90
15977;DHT22;8091;51.914;12.786;2022-10-22T19:06:24;15.70;99.90
15977;DHT22;8091;51.914;12.786;2022-10-22T19:08:50;15.80;99.90
15977;DHT22;8091;51.914;12.786;2022-10-22T19:11:16;15.80;99.90
15977;DHT22;8091;51.914;12.786;2022-10-22T19:13:41;15.80;99.90
15977;DHT22;8091;51.914;12.786;2022-10-22T19:16:08;15.70;99.90
15977;DHT22;8091;51.914;12.786;2022-10-22T19:18:34;15.60;99.90
15977;DHT22;8091;51.914;12.786;2022-10-22T19:21:00;15.60;99.90
15977;DHT22;8091;51.914;12.786;2022-10-22T19:23:26;15.60;99.90
15977;DHT22;8091;51.914;12.786;2022-10-22T19:26:13;15.70;99.90
15977;DHT22;8091;51.914;12.786;2022-10-22T19:28:38;15.80;99.90
15977;DHT22;8091;51.914;12.786;2022-10-22T19:31:06;15.80;99.90
15977;DHT22;8091;51.914;12.786;2022-10-22T19:33:33;15.80;92.70
15977;DHT22;8091;51.914;12.786;2022-10-22T19:36:02;15.80;77.80
15977;DHT22;8091;51.914;12.786;2022-10-22T19:38:27;15.90;91.50
15977;DHT22;8091;51.914;12.786;2022-10-22T19:40:53;15.90;54.00
15977;DHT22;8091;51.914;12.786;2022-10-22T19:43:19;15.90;32.20
15977;DHT22;8091;51.914;12.786;2022-10-22T19:45:44;15.90;27.10
15977;DHT22;8091;51.914;12.786;2022-10-22T19:48:10;15.90;26.10
15977;DHT22;8091;51.914;12.786;2022-10-22T19:50:35;15.90;25.50
15977;DHT22;8091;51.914;12.786;2022-10-22T19:53:01;15.90;17.30
15977;DHT22;8091;51.914;12.786;2022-10-22T19:55:27;15.90;17.70
15977;DHT22;8091;51.914;12.786;2022-10-22T19:57:52;15.90;22.10
15977;DHT22;8091;51.914;12.786;2022-10-22T20:02:43;15.90;22.40
15977;DHT22;8091;51.914;12.786;2022-10-22T20:05:09;15.90;16.20
15977;DHT22;8091;51.914;12.786;2022-10-22T20:07:34;15.90;28.40
15977;DHT22;8091;51.914;12.786;2022-10-22T20:12:26;15.90;43.10
15977;DHT22;8091;51.914;12.786;2022-10-22T20:14:51;15.80;56.90
15977;DHT22;8091;51.914;12.786;2022-10-22T20:19:44;15.70;83.80
15977;DHT22;8091;51.914;12.786;2022-10-22T20:22:10;15.60;99.90
15977;DHT22;8091;51.914;12.786;2022-10-22T20:24:36;15.60;99.90
15977;DHT22;8091;51.914;12.786;2022-10-22T20:27:01;15.50;99.90
15977;DHT22;8091;51.914;12.786;2022-10-22T20:29:27;15.50;99.90
15977;DHT22;8091;51.914;12.786;2022-10-22T20:31:52;15.30;99.90
15977;DHT22;8091;51.914;12.786;2022-10-22T20:34:18;15.20;99.90
15977;DHT22;8091;51.914;12.786;2022-10-22T20:36:43;15.20;99.90
15977;DHT22;8091;51.914;12.786;2022-10-22T20:39:10;15.10;99.90
15977;DHT22;8091;51.914;12.786;2022-10-22T20:41:36;15.00;99.90
15977;DHT22;8091;51.914;12.786;2022-10-22T20:44:04;15.00;99.90
15977;DHT22;8091;51.914;12.786;2022-10-22T20:46:30;14.90;99.90
